Bismarck, ND (58501)

1:10 PM CST on February 08, 2016 (GMT -0600)
Pacific Avenue Bismarck | | Change Station
CLOSE
Current Station
Personal Weather Station
Location: Bismarck, ND
Elevation: 1722 ft
Nearby Weather Stations

Elev 1722 ft 46.83 °N, 100.75 °W | Updated 8 minutes ago

Clear
Clear
31.5 °F
Feels Like 22 °F
N
13.0
Wind Variable Wind from WSW

Today
High -- | Low -- °F
--% Chance of Precip.
Yesterday
High -- | Low -- °F
Precip. -- in
Pressure 30.33 in
Visibility 10.0 miles
Clouds Clear
Windchill 22 °F
Dew Point 19 °F
Humidity 60%
Rainfall 0.00 in
Snow Depth Not available.
7:58 AM 5:56 PM
New Moon, 0% visible
METAR KBIS 081852Z 34019G26KT 10SM CLR 02/M08 A3027 RMK AO2 PK WND 33030/1753 SLP271 T00171083
Pressure 30.33 in
Visibility 10.0 miles
Clouds Clear
Windchill 22 °F
Dew Point 19 °F
Humidity 60%
Rainfall 0.00 in
Snow Depth Not available.
7:58 AM 5:56 PM
New Moon, 0% visible
METAR KBIS 081852Z 34019G26KT 10SM CLR 02/M08 A3027 RMK AO2 PK WND 33030/1753 SLP271 T00171083

10-Day Weather Forecast

Almanac

Astronomy

Feb. 08, 2016 Rise Set
Actual Time
Civil Twilight
Nautical Twilight
Astronomical Twilight
Moon
Length of Visible Light
Length of Day
Tomorrow will be .
, % of the Moon is Illuminated

Today's Extremes

State Highs State Lows

Community

WunderPhotos

Upload Photos

1,891,485 photos uploaded!

WunderBlog® & News

Nearby

Air Quality

  Air Quality AQ Index Pollutant
Not available.

Snow Depth

Station Depth Elevation

Earthquake Activity

City Distance Mag. Time & Date
Minimum magnitude displayed is 2.5.

Coastal Water Temperatures

Place Temperature

Stations

Nearby Weather Stations

Station Location Temp. Windchill Dew Point Humidity Wind Precip. Elev Updated Type
                   

Watches & Warnings

There are currently no watches in effect.